Kingmont, West Virginia
Current Conditions -  °F | °C
As of 10:53 PM on Wednesday 17 Dec 2014 (Local Time) from KCKB Reporting Station
Overcast Overcast  
Wind Chill: 21°   Ceiling: 2300
Heat Index: 31°   Visibility: 10mi
Dew Point: 23°   Wind: 14mph
Humidity: 72%   Direction: 290°WNW
Pressure: 30.16"   Gusts: NA
Location:  39.45°N, 80.18°W
Report Text: KCKB 180353Z 29012KT 10SM OVC023 M01/M05 A3016 RMK AO2 SLP219 T10061050
Loading
Personal Weather Stations






























Interactive Weather Map New forecast layout! Learn more

10-Day Weather Forecast

Advertisements
Track Severe Weather on mobile